sensor_id;sensor_type;location;lat;lon;timestamp;pressure;altitude;pressure_sealevel;temperature;humidity
54978;BME280;40873;47.522;19.106;2023-06-22T00:01:47;100531.03;;;21.19;100.00
54978;BME280;40873;47.522;19.106;2023-06-22T00:04:14;100541.53;;;21.13;100.00
54978;BME280;40873;47.522;19.106;2023-06-22T00:06:41;100531.16;;;21.10;100.00
54978;BME280;40873;47.522;19.106;2023-06-22T00:09:08;100545.22;;;21.12;100.00
54978;BME280;40873;47.522;19.106;2023-06-22T00:11:37;100539.72;;;21.13;100.00
54978;BME280;40873;47.522;19.106;2023-06-22T00:14:05;100543.16;;;21.05;100.00
54978;BME280;40873;47.522;19.106;2023-06-22T00:16:32;100546.19;;;21.02;100.00
54978;BME280;40873;47.522;19.106;2023-06-22T00:19:00;100543.66;;;21.01;100.00
54978;BME280;40873;47.522;19.106;2023-06-22T00:21:27;100549.53;;;21.04;100.00
54978;BME280;40873;47.522;19.106;2023-06-22T00:23:54;100547.69;;;21.05;100.00
54978;BME280;40873;47.522;19.106;2023-06-22T00:26:22;100546.84;;;21.04;100.00
54978;BME280;40873;47.522;19.106;2023-06-22T00:28:49;100552.91;;;21.06;100.00
54978;BME280;40873;47.522;19.106;2023-06-22T00:31:16;100546.34;;;21.01;100.00
54978;BME280;40873;47.522;19.106;2023-06-22T00:33:44;100545.63;;;20.99;100.00
54978;BME280;40873;47.522;19.106;2023-06-22T00:36:10;100538.59;;;20.98;100.00
54978;BME280;40873;47.522;19.106;2023-06-22T00:38:40;100531.59;;;21.05;100.00
54978;BME280;40873;47.522;19.106;2023-06-22T00:41:07;100526.06;;;21.24;100.00
54978;BME280;40873;47.522;19.106;2023-06-22T00:43:34;100528.97;;;21.13;100.00
54978;BME280;40873;47.522;19.106;2023-06-22T00:46:01;100541.66;;;21.03;100.00
54978;BME280;40873;47.522;19.106;2023-06-22T00:48:28;100546.78;;;20.96;100.00
54978;BME280;40873;47.522;19.106;2023-06-22T00:50:55;100554.28;;;21.11;100.00
54978;BME280;40873;47.522;19.106;2023-06-22T00:53:23;100544.16;;;21.04;100.00
54978;BME280;40873;47.522;19.106;2023-06-22T00:55:50;100544.09;;;21.14;100.00
54978;BME280;40873;47.522;19.106;2023-06-22T00:58:19;100530.97;;;21.11;100.00
54978;BME280;40873;47.522;19.106;2023-06-22T01:00:48;100526.16;;;21.15;100.00
54978;BME280;40873;47.522;19.106;2023-06-22T01:03:16;100522.41;;;21.07;100.00
54978;BME280;40873;47.522;19.106;2023-06-22T01:05:44;100524.03;;;21.00;100.00
54978;BME280;40873;47.522;19.106;2023-06-22T01:08:27;100526.34;;;20.95;100.00
54978;BME280;40873;47.522;19.106;2023-06-22T01:11:08;100529.03;;;20.95;100.00
54978;BME280;40873;47.522;19.106;2023-06-22T01:13:44;100541.75;;;20.93;100.00
54978;BME280;40873;47.522;19.106;2023-06-22T01:18:44;100542.72;;;20.92;100.00
54978;BME280;40873;47.522;19.106;2023-06-22T01:21:16;100543.44;;;20.94;100.00
54978;BME280;40873;47.522;19.106;2023-06-22T01:27:09;100533.72;;;20.93;100.00
54978;BME280;40873;47.522;19.106;2023-06-22T01:29:44;100526.63;;;20.92;100.00
54978;BME280;40873;47.522;19.106;2023-06-22T01:32:13;100537.13;;;20.86;100.00
54978;BME280;40873;47.522;19.106;2023-06-22T01:34:41;100542.38;;;20.87;100.00
54978;BME280;40873;47.522;19.106;2023-06-22T01:37:09;100547.84;;;20.86;100.00
54978;BME280;40873;47.522;19.106;2023-06-22T01:39:36;100531.94;;;20.84;100.00
54978;BME280;40873;47.522;19.106;2023-06-22T01:42:04;100528.72;;;20.80;100.00
54978;BME280;40873;47.522;19.106;2023-06-22T01:44:32;100534.09;;;20.80;100.00
54978;BME280;40873;47.522;19.106;2023-06-22T01:47:01;100532.69;;;20.76;100.00
54978;BME280;40873;47.522;19.106;2023-06-22T01:49:28;100531.19;;;20.74;100.00
54978;BME280;40873;47.522;19.106;2023-06-22T01:51:56;100525.81;;;20.74;100.00
54978;BME280;40873;47.522;19.106;2023-06-22T01:54:23;100527.66;;;20.73;100.00
54978;BME280;40873;47.522;19.106;2023-06-22T01:56:50;100535.16;;;20.70;100.00
54978;BME280;40873;47.522;19.106;2023-06-22T01:59:32;100537.00;;;20.69;100.00
54978;BME280;40873;47.522;19.106;2023-06-22T02:02:04;100533.31;;;20.70;100.00
54978;BME280;40873;47.522;19.106;2023-06-22T02:04:43;100532.03;;;20.74;100.00
54978;BME280;40873;47.522;19.106;2023-06-22T02:07:14;100533.69;;;20.75;100.00
54978;BME280;40873;47.522;19.106;2023-06-22T02:09:45;100541.59;;;20.77;100.00
54978;BME280;40873;47.522;19.106;2023-06-22T02:12:17;100548.78;;;20.76;100.00
54978;BME280;40873;47.522;19.106;2023-06-22T02:14:46;100551.63;;;20.75;100.00
54978;BME280;40873;47.522;19.106;2023-06-22T02:17:13;100552.78;;;20.72;100.00
54978;BME280;40873;47.522;19.106;2023-06-22T02:19:41;100545.59;;;20.73;100.00
54978;BME280;40873;47.522;19.106;2023-06-22T02:22:08;100542.91;;;20.73;100.00
54978;BME280;40873;47.522;19.106;2023-06-22T02:24:35;100549.16;;;20.64;100.00
54978;BME280;40873;47.522;19.106;2023-06-22T02:27:02;100555.53;;;20.63;100.00
54978;BME280;40873;47.522;19.106;2023-06-22T02:29:30;100563.28;;;20.66;100.00
54978;BME280;40873;47.522;19.106;2023-06-22T02:31:57;100550.56;;;20.68;100.00
54978;BME280;40873;47.522;19.106;2023-06-22T02:34:24;100561.13;;;20.69;100.00
54978;BME280;40873;47.522;19.106;2023-06-22T02:36:51;100549.56;;;20.69;100.00
54978;BME280;40873;47.522;19.106;2023-06-22T02:39:23;100556.91;;;20.67;100.00
54978;BME280;40873;47.522;19.106;2023-06-22T02:41:54;100553.53;;;20.65;100.00
54978;BME280;40873;47.522;19.106;2023-06-22T02:44:21;100561.72;;;20.63;100.00
54978;BME280;40873;47.522;19.106;2023-06-22T02:46:48;100569.38;;;20.58;100.00
54978;BME280;40873;47.522;19.106;2023-06-22T02:49:16;100564.88;;;20.59;100.00
54978;BME280;40873;47.522;19.106;2023-06-22T02:51:46;100553.16;;;20.60;100.00
54978;BME280;40873;47.522;19.106;2023-06-22T02:54:14;100561.22;;;20.60;100.00
54978;BME280;40873;47.522;19.106;2023-06-22T02:56:40;100565.84;;;20.58;100.00
54978;BME280;40873;47.522;19.106;2023-06-22T02:59:10;100566.84;;;20.57;100.00
54978;BME280;40873;47.522;19.106;2023-06-22T03:01:38;100561.50;;;20.57;100.00
54978;BME280;40873;47.522;19.106;2023-06-22T03:04:08;100571.69;;;20.53;100.00
54978;BME280;40873;47.522;19.106;2023-06-22T03:06:35;100558.44;;;20.51;100.00
54978;BME280;40873;47.522;19.106;2023-06-22T03:09:04;100565.78;;;20.49;100.00
54978;BME280;40873;47.522;19.106;2023-06-22T03:11:32;100557.91;;;20.48;100.00
54978;BME280;40873;47.522;19.106;2023-06-22T03:14:00;100562.94;;;20.51;100.00
54978;BME280;40873;47.522;19.106;2023-06-22T03:16:28;100566.00;;;20.56;100.00
54978;BME280;40873;47.522;19.106;2023-06-22T03:18:56;100560.97;;;20.53;100.00
54978;BME280;40873;47.522;19.106;2023-06-22T03:21:23;100560.97;;;20.53;100.00
54978;BME280;40873;47.522;19.106;2023-06-22T03:23:50;100557.44;;;20.52;100.00
54978;BME280;40873;47.522;19.106;2023-06-22T03:26:18;100558.13;;;20.55;100.00
54978;BME280;40873;47.522;19.106;2023-06-22T03:28:46;100565.78;;;20.49;100.00
54978;BME280;40873;47.522;19.106;2023-06-22T03:31:13;100560.97;;;20.53;100.00
54978;BME280;40873;47.522;19.106;2023-06-22T03:33:40;100555.44;;;20.55;100.00
54978;BME280;40873;47.522;19.106;2023-06-22T03:36:07;100559.53;;;20.59;100.00
54978;BME280;40873;47.522;19.106;2023-06-22T03:38:35;100547.25;;;20.56;100.00
54978;BME280;40873;47.522;19.106;2023-06-22T03:41:02;100553.44;;;20.57;100.00
54978;BME280;40873;47.522;19.106;2023-06-22T03:43:29;100563.19;;;20.58;100.00
54978;BME280;40873;47.522;19.106;2023-06-22T03:45:56;100553.84;;;20.62;100.00
54978;BME280;40873;47.522;19.106;2023-06-22T03:48:23;100553.41;;;20.66;100.00
54978;BME280;40873;47.522;19.106;2023-06-22T03:50:50;100551.25;;;20.70;100.00
54978;BME280;40873;47.522;19.106;2023-06-22T03:53:17;100563.50;;;20.72;100.00
54978;BME280;40873;47.522;19.106;2023-06-22T03:55:52;100570.56;;;20.73;100.00
54978;BME280;40873;47.522;19.106;2023-06-22T03:58:20;100572.09;;;20.76;100.00
54978;BME280;40873;47.522;19.106;2023-06-22T04:00:48;100576.44;;;20.77;100.00
54978;BME280;40873;47.522;19.106;2023-06-22T04:03:16;100568.41;;;20.77;100.00
54978;BME280;40873;47.522;19.106;2023-06-22T04:05:46;100571.75;;;20.79;100.00
54978;BME280;40873;47.522;19.106;2023-06-22T04:08:13;100576.00;;;20.82;100.00
54978;BME280;40873;47.522;19.106;2023-06-22T04:10:40;100580.19;;;20.84;100.00
54978;BME280;40873;47.522;19.106;2023-06-22T04:13:08;100581.88;;;20.85;100.00
54978;BME280;40873;47.522;19.106;2023-06-22T04:15:35;100581.59;;;20.88;100.00
54978;BME280;40873;47.522;19.106;2023-06-22T04:18:02;100583.78;;;20.93;100.00
54978;BME280;40873;47.522;19.106;2023-06-22T04:20:31;100579.13;;;20.95;100.00
54978;BME280;40873;47.522;19.106;2023-06-22T04:22:59;100569.78;;;20.99;100.00
54978;BME280;40873;47.522;19.106;2023-06-22T04:25:26;100576.13;;;20.98;100.00
54978;BME280;40873;47.522;19.106;2023-06-22T04:27:53;100580.03;;;21.03;100.00
54978;BME280;40873;47.522;19.106;2023-06-22T04:30:20;100593.53;;;21.12;100.00
54978;BME280;40873;47.522;19.106;2023-06-22T04:32:47;100578.97;;;21.14;100.00
54978;BME280;40873;47.522;19.106;2023-06-22T04:35:24;100584.53;;;21.21;100.00
54978;BME280;40873;47.522;19.106;2023-06-22T04:37:53;100590.28;;;21.26;100.00
54978;BME280;40873;47.522;19.106;2023-06-22T04:40:22;100589.03;;;21.30;100.00
54978;BME280;40873;47.522;19.106;2023-06-22T04:42:50;100588.69;;;21.33;100.00
54978;BME280;40873;47.522;19.106;2023-06-22T04:45:20;100583.88;;;21.37;100.00
54978;BME280;40873;47.522;19.106;2023-06-22T04:47:48;100589.59;;;21.42;100.00
54978;BME280;40873;47.522;19.106;2023-06-22T04:50:15;100582.75;;;21.47;100.00
54978;BME280;40873;47.522;19.106;2023-06-22T04:52:44;100581.63;;;21.50;100.00
54978;BME280;40873;47.522;19.106;2023-06-22T04:55:12;100586.66;;;21.53;100.00
54978;BME280;40873;47.522;19.106;2023-06-22T04:57:41;100588.88;;;21.57;100.00
54978;BME280;40873;47.522;19.106;2023-06-22T05:00:12;100596.31;;;21.64;100.00
54978;BME280;40873;47.522;19.106;2023-06-22T05:02:40;100590.34;;;21.78;100.00
54978;BME280;40873;47.522;19.106;2023-06-22T05:05:08;100591.41;;;21.85;100.00
54978;BME280;40873;47.522;19.106;2023-06-22T05:07:36;100592.91;;;21.87;100.00
54978;BME280;40873;47.522;19.106;2023-06-22T05:10:03;100591.28;;;21.95;100.00
54978;BME280;40873;47.522;19.106;2023-06-22T05:12:32;100599.38;;;22.03;100.00
54978;BME280;40873;47.522;19.106;2023-06-22T05:14:59;100604.81;;;22.11;100.00
54978;BME280;40873;47.522;19.106;2023-06-22T05:17:26;100602.19;;;22.19;100.00
54978;BME280;40873;47.522;19.106;2023-06-22T05:19:53;100604.38;;;22.24;100.00
54978;BME280;40873;47.522;19.106;2023-06-22T05:22:21;100606.94;;;22.33;100.00
54978;BME280;40873;47.522;19.106;2023-06-22T05:24:48;100610.31;;;22.43;100.00
54978;BME280;40873;47.522;19.106;2023-06-22T05:27:16;100612.53;;;22.48;100.00
54978;BME280;40873;47.522;19.106;2023-06-22T05:29:43;100619.59;;;22.57;100.00
54978;BME280;40873;47.522;19.106;2023-06-22T05:32:10;100623.16;;;22.66;100.00
54978;BME280;40873;47.522;19.106;2023-06-22T05:34:37;100621.84;;;22.70;100.00
54978;BME280;40873;47.522;19.106;2023-06-22T05:37:05;100628.59;;;22.82;100.00
54978;BME280;40873;47.522;19.106;2023-06-22T05:39:32;100626.78;;;22.91;100.00
54978;BME280;40873;47.522;19.106;2023-06-22T05:42:00;100634.38;;;22.95;100.00
54978;BME280;40873;47.522;19.106;2023-06-22T05:44:26;100637.72;;;22.97;100.00
54978;BME280;40873;47.522;19.106;2023-06-22T05:46:54;100650.16;;;23.07;100.00
54978;BME280;40873;47.522;19.106;2023-06-22T05:49:20;100644.47;;;23.10;100.00
54978;BME280;40873;47.522;19.106;2023-06-22T05:51:49;100642.97;;;23.23;100.00
54978;BME280;40873;47.522;19.106;2023-06-22T05:54:16;100647.34;;;23.33;100.00
54978;BME280;40873;47.522;19.106;2023-06-22T05:56:45;100652.41;;;23.44;100.00
54978;BME280;40873;47.522;19.106;2023-06-22T05:59:11;100652.22;;;23.45;100.00
54978;BME280;40873;47.522;19.106;2023-06-22T06:01:39;100648.16;;;23.49;100.00
54978;BME280;40873;47.522;19.106;2023-06-22T06:04:06;100645.50;;;23.58;100.00
54978;BME280;40873;47.522;19.106;2023-06-22T06:06:37;100646.84;;;23.62;100.00
54978;BME280;40873;47.522;19.106;2023-06-22T06:09:04;100651.38;;;23.69;100.00
54978;BME280;40873;47.522;19.106;2023-06-22T06:11:31;100649.84;;;23.83;100.00
54978;BME280;40873;47.522;19.106;2023-06-22T06:13:58;100653.88;;;23.95;100.00
54978;BME280;40873;47.522;19.106;2023-06-22T06:16:26;100649.81;;;24.08;100.00
54978;BME280;40873;47.522;19.106;2023-06-22T06:18:52;100648.94;;;24.15;100.00
54978;BME280;40873;47.522;19.106;2023-06-22T06:21:22;100651.59;;;24.23;100.00
54978;BME280;40873;47.522;19.106;2023-06-22T06:23:49;100650.44;;;24.34;100.00
54978;BME280;40873;47.522;19.106;2023-06-22T06:26:16;100649.56;;;24.42;100.00
54978;BME280;40873;47.522;19.106;2023-06-22T06:28:43;100643.75;;;24.53;100.00
54978;BME280;40873;47.522;19.106;2023-06-22T06:31:11;100640.31;;;24.67;99.04
54978;BME280;40873;47.522;19.106;2023-06-22T06:33:39;100640.56;;;24.80;97.51
54978;BME280;40873;47.522;19.106;2023-06-22T06:36:06;100641.00;;;24.92;93.42
54978;BME280;40873;47.522;19.106;2023-06-22T06:38:35;100638.41;;;25.07;90.51
54978;BME280;40873;47.522;19.106;2023-06-22T06:41:02;100637.50;;;25.14;92.53
54978;BME280;40873;47.522;19.106;2023-06-22T06:43:29;100634.31;;;25.34;89.00
54978;BME280;40873;47.522;19.106;2023-06-22T06:45:56;100632.28;;;25.36;87.26
54978;BME280;40873;47.522;19.106;2023-06-22T06:48:23;100636.31;;;25.40;85.04
54978;BME280;40873;47.522;19.106;2023-06-22T06:50:50;100634.38;;;25.49;87.41
54978;BME280;40873;47.522;19.106;2023-06-22T06:53:17;100639.38;;;25.52;87.37
54978;BME280;40873;47.522;19.106;2023-06-22T06:55:44;100634.09;;;25.58;89.39
54978;BME280;40873;47.522;19.106;2023-06-22T06:58:12;100628.88;;;25.57;90.46
54978;BME280;40873;47.522;19.106;2023-06-22T07:00:40;100639.34;;;25.60;84.88
54978;BME280;40873;47.522;19.106;2023-06-22T07:03:07;100633.84;;;25.68;80.87
54978;BME280;40873;47.522;19.106;2023-06-22T07:05:34;100633.31;;;25.73;74.79
54978;BME280;40873;47.522;19.106;2023-06-22T07:08:01;100628.00;;;25.79;73.71
54978;BME280;40873;47.522;19.106;2023-06-22T07:10:29;100624.56;;;25.85;73.37
54978;BME280;40873;47.522;19.106;2023-06-22T07:12:57;100621.41;;;25.96;72.38
54978;BME280;40873;47.522;19.106;2023-06-22T07:15:24;100630.91;;;26.07;75.24
54978;BME280;40873;47.522;19.106;2023-06-22T07:17:51;100625.53;;;26.22;81.53
54978;BME280;40873;47.522;19.106;2023-06-22T07:20:19;100622.72;;;26.30;74.19
54978;BME280;40873;47.522;19.106;2023-06-22T07:22:46;100625.97;;;26.40;69.19
54978;BME280;40873;47.522;19.106;2023-06-22T07:25:13;100628.56;;;26.48;66.89
54978;BME280;40873;47.522;19.106;2023-06-22T07:27:46;100622.28;;;26.63;65.20
54978;BME280;40873;47.522;19.106;2023-06-22T07:30:15;100615.56;;;26.73;67.46
54978;BME280;40873;47.522;19.106;2023-06-22T07:32:41;100617.50;;;26.80;65.80
54978;BME280;40873;47.522;19.106;2023-06-22T07:35:09;100622.66;;;26.74;63.70
54978;BME280;40873;47.522;19.106;2023-06-22T07:37:36;100622.53;;;26.83;67.17
54978;BME280;40873;47.522;19.106;2023-06-22T07:40:03;100616.81;;;26.92;66.79
54978;BME280;40873;47.522;19.106;2023-06-22T07:42:33;100622.47;;;26.97;68.12
54978;BME280;40873;47.522;19.106;2023-06-22T07:45:00;100622.53;;;27.04;64.73
54978;BME280;40873;47.522;19.106;2023-06-22T07:47:28;100619.75;;;27.12;63.98
54978;BME280;40873;47.522;19.106;2023-06-22T07:49:57;100617.13;;;27.25;63.92
54978;BME280;40873;47.522;19.106;2023-06-22T07:52:24;100620.38;;;27.36;64.14
54978;BME280;40873;47.522;19.106;2023-06-22T07:54:52;100615.16;;;27.34;64.13
54978;BME280;40873;47.522;19.106;2023-06-22T07:57:20;100614.16;;;27.42;65.58
54978;BME280;40873;47.522;19.106;2023-06-22T07:59:47;100613.97;;;27.43;64.10
54978;BME280;40873;47.522;19.106;2023-06-22T08:02:15;100609.22;;;27.52;66.51
54978;BME280;40873;47.522;19.106;2023-06-22T08:04:42;100603.44;;;27.55;70.06
54978;BME280;40873;47.522;19.106;2023-06-22T08:07:09;100611.00;;;27.66;62.47
54978;BME280;40873;47.522;19.106;2023-06-22T08:09:37;100602.94;;;27.73;65.63
54978;BME280;40873;47.522;19.106;2023-06-22T08:12:04;100609.25;;;27.80;62.35
54978;BME280;40873;47.522;19.106;2023-06-22T08:14:32;100605.75;;;27.86;61.91
54978;BME280;40873;47.522;19.106;2023-06-22T08:16:58;100595.78;;;27.93;62.37
54978;BME280;40873;47.522;19.106;2023-06-22T08:19:26;100602.72;;;28.02;67.08
54978;BME280;40873;47.522;19.106;2023-06-22T08:21:53;100601.50;;;28.05;65.33
54978;BME280;40873;47.522;19.106;2023-06-22T08:24:20;100600.91;;;28.09;62.91
54978;BME280;40873;47.522;19.106;2023-06-22T08:26:47;100601.59;;;28.25;63.15
54978;BME280;40873;47.522;19.106;2023-06-22T08:29:16;100600.53;;;28.19;62.94
54978;BME280;40873;47.522;19.106;2023-06-22T08:31:43;100606.56;;;28.21;62.56
54978;BME280;40873;47.522;19.106;2023-06-22T08:34:10;100597.53;;;28.07;63.16
54978;BME280;40873;47.522;19.106;2023-06-22T08:36:37;100595.03;;;28.06;62.71
54978;BME280;40873;47.522;19.106;2023-06-22T08:39:09;100594.06;;;28.20;64.00
54978;BME280;40873;47.522;19.106;2023-06-22T08:41:36;100594.91;;;28.27;65.15
54978;BME280;40873;47.522;19.106;2023-06-22T08:44:04;100593.72;;;28.36;64.15
54978;BME280;40873;47.522;19.106;2023-06-22T08:46:31;100595.25;;;28.46;64.53
54978;BME280;40873;47.522;19.106;2023-06-22T08:49:00;100600.72;;;28.59;65.12
54978;BME280;40873;47.522;19.106;2023-06-22T08:51:27;100587.75;;;28.54;63.79
54978;BME280;40873;47.522;19.106;2023-06-22T08:53:55;100590.50;;;28.67;64.41
54978;BME280;40873;47.522;19.106;2023-06-22T08:56:22;100583.59;;;28.72;63.18
54978;BME280;40873;47.522;19.106;2023-06-22T08:58:49;100573.00;;;28.90;64.63
54978;BME280;40873;47.522;19.106;2023-06-22T09:01:16;100576.75;;;28.89;64.17
54978;BME280;40873;47.522;19.106;2023-06-22T09:03:44;100573.66;;;28.92;62.91
54978;BME280;40873;47.522;19.106;2023-06-22T09:06:11;100559.88;;;28.93;62.67
54978;BME280;40873;47.522;19.106;2023-06-22T09:08:40;100569.69;;;29.01;62.80
54978;BME280;40873;47.522;19.106;2023-06-22T09:11:07;100571.13;;;28.90;62.92
54978;BME280;40873;47.522;19.106;2023-06-22T09:13:34;100574.50;;;28.99;62.18
54978;BME280;40873;47.522;19.106;2023-06-22T09:16:01;100566.34;;;29.19;64.37
54978;BME280;40873;47.522;19.106;2023-06-22T09:18:28;100556.75;;;29.30;65.85
54978;BME280;40873;47.522;19.106;2023-06-22T09:20:55;100558.63;;;29.42;62.65
54978;BME280;40873;47.522;19.106;2023-06-22T09:23:23;100555.28;;;29.54;64.26
54978;BME280;40873;47.522;19.106;2023-06-22T09:25:50;100553.56;;;29.72;64.28
54978;BME280;40873;47.522;19.106;2023-06-22T09:28:17;100554.41;;;29.80;62.28
54978;BME280;40873;47.522;19.106;2023-06-22T09:30:44;100550.81;;;29.92;61.86
54978;BME280;40873;47.522;19.106;2023-06-22T09:33:11;100545.94;;;30.08;64.01
54978;BME280;40873;47.522;19.106;2023-06-22T09:35:38;100550.94;;;30.17;60.51
54978;BME280;40873;47.522;19.106;2023-06-22T09:38:05;100551.34;;;30.21;58.71
54978;BME280;40873;47.522;19.106;2023-06-22T09:40:32;100544.03;;;30.15;59.69
54978;BME280;40873;47.522;19.106;2023-06-22T09:43:02;100540.00;;;30.30;60.21
54978;BME280;40873;47.522;19.106;2023-06-22T09:45:29;100542.44;;;30.39;58.90
54978;BME280;40873;47.522;19.106;2023-06-22T09:47:56;100544.47;;;30.56;61.76
54978;BME280;40873;47.522;19.106;2023-06-22T09:50:23;100541.81;;;30.81;60.10
54978;BME280;40873;47.522;19.106;2023-06-22T09:52:50;100543.75;;;30.99;59.60
54978;BME280;40873;47.522;19.106;2023-06-22T09:55:22;100546.13;;;30.96;59.23
54978;BME280;40873;47.522;19.106;2023-06-22T09:57:49;100542.38;;;31.15;62.76
54978;BME280;40873;47.522;19.106;2023-06-22T10:00:16;100535.63;;;31.24;60.10
54978;BME280;40873;47.522;19.106;2023-06-22T10:02:46;100535.66;;;31.43;63.31
54978;BME280;40873;47.522;19.106;2023-06-22T10:05:13;100539.97;;;31.32;58.74
54978;BME280;40873;47.522;19.106;2023-06-22T10:07:41;100538.31;;;31.31;60.97
54978;BME280;40873;47.522;19.106;2023-06-22T10:10:11;100531.97;;;31.37;61.51
54978;BME280;40873;47.522;19.106;2023-06-22T10:12:46;100549.63;;;31.53;63.69
54978;BME280;40873;47.522;19.106;2023-06-22T10:15:13;100548.66;;;31.65;58.79
54978;BME280;40873;47.522;19.106;2023-06-22T10:17:41;100543.25;;;31.77;56.68
54978;BME280;40873;47.522;19.106;2023-06-22T10:20:08;100538.81;;;31.83;55.98
54978;BME280;40873;47.522;19.106;2023-06-22T10:22:43;100537.47;;;31.49;56.18
54978;BME280;40873;47.522;19.106;2023-06-22T10:25:12;100540.09;;;31.12;56.33
54978;BME280;40873;47.522;19.106;2023-06-22T10:27:39;100536.88;;;31.22;59.05
54978;BME280;40873;47.522;19.106;2023-06-22T10:30:10;100533.84;;;31.36;57.30
54978;BME280;40873;47.522;19.106;2023-06-22T10:32:41;100530.44;;;31.41;57.26
54978;BME280;40873;47.522;19.106;2023-06-22T10:35:09;100528.66;;;31.28;56.64
54978;BME280;40873;47.522;19.106;2023-06-22T10:37:44;100530.66;;;31.40;57.38
54978;BME280;40873;47.522;19.106;2023-06-22T10:40:15;100525.69;;;31.05;55.03
54978;BME280;40873;47.522;19.106;2023-06-22T10:42:43;100529.41;;;30.86;56.14
54978;BME280;40873;47.522;19.106;2023-06-22T10:45:10;100522.31;;;30.84;56.77
54978;BME280;40873;47.522;19.106;2023-06-22T10:47:38;100517.59;;;30.98;55.70
54978;BME280;40873;47.522;19.106;2023-06-22T10:50:05;100520.75;;;31.20;56.25
54978;BME280;40873;47.522;19.106;2023-06-22T10:52:33;100523.38;;;31.33;55.48
54978;BME280;40873;47.522;19.106;2023-06-22T10:55:00;100516.09;;;31.27;53.60
54978;BME280;40873;47.522;19.106;2023-06-22T10:57:27;100521.78;;;31.26;55.69
54978;BME280;40873;47.522;19.106;2023-06-22T10:59:54;100516.56;;;31.43;56.63
54978;BME280;40873;47.522;19.106;2023-06-22T11:02:21;100522.28;;;31.59;56.20
54978;BME280;40873;47.522;19.106;2023-06-22T11:04:48;100511.53;;;31.83;57.99
54978;BME280;40873;47.522;19.106;2023-06-22T11:07:16;100519.34;;;31.98;54.92
54978;BME280;40873;47.522;19.106;2023-06-22T11:09:43;100520.63;;;32.13;54.22
54978;BME280;40873;47.522;19.106;2023-06-22T11:12:11;100513.63;;;32.36;53.56
54978;BME280;40873;47.522;19.106;2023-06-22T11:14:39;100518.19;;;32.05;52.97
54978;BME280;40873;47.522;19.106;2023-06-22T11:17:06;100511.88;;;32.23;54.20
54978;BME280;40873;47.522;19.106;2023-06-22T11:19:33;100511.31;;;32.03;54.03
54978;BME280;40873;47.522;19.106;2023-06-22T11:22:00;100504.16;;;32.20;53.60
54978;BME280;40873;47.522;19.106;2023-06-22T11:24:27;100505.13;;;32.26;54.05
54978;BME280;40873;47.522;19.106;2023-06-22T11:26:55;100504.53;;;32.54;53.84
54978;BME280;40873;47.522;19.106;2023-06-22T11:29:25;100493.50;;;32.60;54.82
54978;BME280;40873;47.522;19.106;2023-06-22T11:32:04;100496.50;;;32.82;56.58
54978;BME280;40873;47.522;19.106;2023-06-22T11:34:31;100499.78;;;33.03;51.31
54978;BME280;40873;47.522;19.106;2023-06-22T11:36:58;100495.03;;;33.21;51.60
54978;BME280;40873;47.522;19.106;2023-06-22T11:39:25;100501.09;;;33.23;49.93
54978;BME280;40873;47.522;19.106;2023-06-22T11:42:09;100499.19;;;33.00;50.19
54978;BME280;40873;47.522;19.106;2023-06-22T11:44:37;100492.88;;;32.88;49.20
54978;BME280;40873;47.522;19.106;2023-06-22T11:47:05;100496.47;;;33.00;50.67
54978;BME280;40873;47.522;19.106;2023-06-22T11:49:32;100489.94;;;33.25;48.54
54978;BME280;40873;47.522;19.106;2023-06-22T11:51:59;100487.78;;;33.27;49.29
54978;BME280;40873;47.522;19.106;2023-06-22T11:54:26;100487.59;;;33.40;47.57
54978;BME280;40873;47.522;19.106;2023-06-22T11:56:53;100483.97;;;33.63;49.46
54978;BME280;40873;47.522;19.106;2023-06-22T11:59:20;100488.53;;;33.86;51.36
54978;BME280;40873;47.522;19.106;2023-06-22T12:01:49;100489.34;;;34.10;47.76
54978;BME280;40873;47.522;19.106;2023-06-22T12:04:18;100479.47;;;34.09;46.07
54978;BME280;40873;47.522;19.106;2023-06-22T12:06:45;100477.59;;;33.98;48.56
54978;BME280;40873;47.522;19.106;2023-06-22T12:09:13;100474.69;;;34.61;47.74
54978;BME280;40873;47.522;19.106;2023-06-22T12:11:41;100471.63;;;35.64;44.28
54978;BME280;40873;47.522;19.106;2023-06-22T12:14:08;100473.47;;;36.02;42.24
54978;BME280;40873;47.522;19.106;2023-06-22T12:16:35;100469.13;;;35.62;43.40
54978;BME280;40873;47.522;19.106;2023-06-22T12:19:02;100467.38;;;35.34;42.79
54978;BME280;40873;47.522;19.106;2023-06-22T12:21:29;100463.75;;;35.12;41.62
54978;BME280;40873;47.522;19.106;2023-06-22T12:23:56;100452.78;;;34.95;42.32
54978;BME280;40873;47.522;19.106;2023-06-22T12:26:23;100444.72;;;34.72;43.74
54978;BME280;40873;47.522;19.106;2023-06-22T12:28:50;100441.06;;;34.83;47.74
54978;BME280;40873;47.522;19.106;2023-06-22T12:31:17;100442.22;;;35.04;43.44
54978;BME280;40873;47.522;19.106;2023-06-22T12:33:44;100433.53;;;35.07;44.89
54978;BME280;40873;47.522;19.106;2023-06-22T12:36:11;100437.47;;;34.49;44.52
54978;BME280;40873;47.522;19.106;2023-06-22T12:38:38;100440.38;;;34.42;45.65
54978;BME280;40873;47.522;19.106;2023-06-22T12:41:05;100442.28;;;33.96;44.54
54978;BME280;40873;47.522;19.106;2023-06-22T12:43:32;100439.44;;;34.37;47.50
54978;BME280;40873;47.522;19.106;2023-06-22T12:45:59;100438.50;;;34.59;45.94